This is the latest recevied weather packets stored in our database for station/object KSGT. If no packets are shown the sender has not sent any weather packets the latest 1 day(s).
| Time | Temp. | Humidity | Pressure | Rain* | Wind** | Luminosity | Snow |
|---|---|---|---|---|---|---|---|
| 1836274586 | 20° C | 100% | 1016.9 hPa | - | 2.68 m/s, 20° | - | - |
| 1836274438 | 20° C | 100% | 1016.9 hPa | - | 2.68 m/s, 20° | - | - |
| 1836273986 | 20° C | 100% | 1016.9 hPa | - | 2.68 m/s, 20° | - | - |
| 1778058819 | 11.67° C | 100% | 1010.5 hPa | - | 5.81 m/s, 30° | - | - |
| 1778058221 | 11.67° C | 100% | 1010.5 hPa | - | 5.81 m/s, 30° | - | - |
| 1778057621 | - | - | 1013.2 hPa | - | 7.6 m/s, 20° | - | - |
| 1778057024 | - | - | 1013.2 hPa | - | 7.6 m/s, 50° | - | - |
| 1778056419 | 11.67° C | 100% | 1009.5 hPa | - | 7.6 m/s, 50° | - | - |
| 1778055818 | 11.67° C | 100% | 1009.5 hPa | - | 7.6 m/s, 50° | - | - |
| 1778055216 | 12.78° C | 100% | 1009.1 hPa | - | 10.73 m/s, 20° | - | - |
| 1778054617 | 12.78° C | 100% | 1009.1 hPa | - | 10.73 m/s, 20° | - | - |
| 1778054016 | 13.89° C | 93% | 1008.8 hPa | - | 8.49 m/s, 20° | - | - |
| 1778053419 | 13.89° C | 93% | 1008.8 hPa | - | 8.49 m/s, 20° | - | - |
| 1778052818 | 13.89° C | 93% | 1007.8 hPa | - | 11.62 m/s, 20° | - | - |
| 1778052218 | 13.89° C | 93% | 1007.8 hPa | - | 11.62 m/s, 20° | - | - |
| 1778051619 | 15.56° C | 93% | 1007.8 hPa | - | 15.2 m/s, 10° | - | - |
| 1778051020 | 15.56° C | 93% | 1007.8 hPa | - | 15.2 m/s, 10° | - | - |
| 1778050415 | 22.78° C | 94% | 1006.8 hPa | - | 5.36 m/s, 190° | - | - |
| 1778049816 | 22.78° C | 94% | 1006.8 hPa | - | 5.36 m/s, 190° | - | - |
| 1778049223 | 22.78° C | 94% | 1006.8 hPa | - | 5.36 m/s, 190° | - | - |
| 1778048618 | 22.78° C | 94% | 1006.8 hPa | - | 5.36 m/s, 190° | - | - |
| 1778048017 | 22.78° C | 94% | 1006.8 hPa | - | 5.36 m/s, 190° | - | - |
| 1778047422 | 22.78° C | 94% | 1006.8 hPa | - | 5.36 m/s, 190° | - | - |
| 1778046819 | 22.78° C | 94% | 1006.8 hPa | - | 6.71 m/s, 190° | - | - |
| 1778046223 | 22.78° C | 94% | 1007.5 hPa | - | 6.71 m/s, 190° | - | - |
* Rain since midnight (hover to see other rain measurements)
** Current wind speed in m/s (hover to see current wind gust speed)